Time;durP1;ratioP1;P1;durP2;ratioP2;P2;SDS_P1;SDS_P2;PMS_P1;PMS_P2;Temp;Humidity;BMP_temperature;BMP_pressure;BME280_temperature;BME280_humidity;BME280_pressure;Samples;Min_cycle;Max_cycle;Signal;HPM_P1;HPM_P2
2022/01/27 00:01:30;;;;;;;45.08;25.00;;;;;;;-1.84;100.00;93756.78;5070842;28;20088;-78
2022/01/27 00:04:13;;;;;;;45.58;25.33;;;;;;;-1.83;100.00;93760.09;5070829;28;20094;-78
2022/01/27 00:06:42;;;;;;;88.53;40.28;;;;;;;-1.82;100.00;93759.16;5076272;28;20519;-78
2022/01/27 00:09:25;;;;;;;45.40;24.85;;;;;;;-1.94;100.00;93750.88;5090660;28;20056;-78
2022/01/27 00:11:51;;;;;;;30.48;14.10;;;;;;;-2.12;100.00;93743.03;5090354;28;20044;-78
2022/01/27 00:14:20;;;;;;;43.80;23.48;;;;;;;-2.17;100.00;93729.06;5090807;28;20040;-78
2022/01/27 00:16:56;;;;;;;56.40;31.17;;;;;;;-1.99;100.00;93751.22;5090939;28;20094;-78
2022/01/27 00:19:23;;;;;;;58.03;30.88;;;;;;;-1.95;100.00;93755.09;5091031;28;20143;-78
2022/01/27 00:21:51;;;;;;;54.15;29.77;;;;;;;-1.94;100.00;93755.91;5090541;28;20052;-78
2022/01/27 00:24:18;;;;;;;52.95;28.75;;;;;;;-1.91;100.00;93753.13;5090948;28;20450;-78
2022/01/27 00:26:45;;;;;;;54.55;25.17;;;;;;;-1.88;100.00;93755.41;5090927;28;20059;-78
2022/01/27 00:29:12;;;;;;;51.50;28.17;;;;;;;-1.96;100.00;93742.63;5090464;28;20055;-78
2022/01/27 00:31:39;;;;;;;56.72;29.13;;;;;;;-1.89;100.00;93764.69;5090448;28;20491;-78
2022/01/27 00:34:06;;;;;;;55.30;28.90;;;;;;;-1.93;100.00;93752.47;5089865;28;20442;-78
2022/01/27 00:36:34;;;;;;;57.90;31.10;;;;;;;-1.91;100.00;93758.97;5090675;28;20052;-78
2022/01/27 00:39:02;;;;;;;51.65;27.33;;;;;;;-1.98;100.00;93757.88;5090343;28;20048;-78
2022/01/27 00:41:29;;;;;;;91.22;40.58;;;;;;;-2.08;100.00;93731.81;5090432;28;20048;-78
2022/01/27 00:43:56;;;;;;;151.68;63.75;;;;;;;-2.12;100.00;93751.38;5090279;28;20567;-78
2022/01/27 00:46:23;;;;;;;82.72;35.25;;;;;;;-2.15;100.00;93747.38;5090470;28;20048;-78
2022/01/27 00:48:51;;;;;;;90.47;39.47;;;;;;;-2.25;100.00;93749.00;5090071;28;20048;-78
2022/01/27 00:51:21;;;;;;;174.50;73.68;;;;;;;-2.15;100.00;93744.06;5090255;28;20079;-78
2022/01/27 00:53:53;;;;;;;119.35;52.97;;;;;;;-2.12;100.00;93746.34;5090194;28;20055;-78
2022/01/27 00:56:27;;;;;;;71.90;36.15;;;;;;;-2.04;100.00;93750.78;5090273;28;20044;-78
2022/01/27 00:59:03;;;;;;;58.28;30.75;;;;;;;-1.99;100.00;93751.22;5090314;28;20048;-78
2022/01/27 01:01:34;;;;;;;72.40;35.33;;;;;;;-2.07;100.00;93740.94;5089829;28;20050;-78
2022/01/27 01:04:05;;;;;;;75.70;32.42;;;;;;;-1.95;100.00;93747.53;5090162;28;20047;-79
2022/01/27 01:06:39;;;;;;;61.95;30.08;;;;;;;-1.91;100.00;93751.41;5089616;28;20040;-78
2022/01/27 01:14:52;;;;;;;54.92;26.98;;;;;;;-1.88;100.00;93735.28;5089623;28;20058;-81
2022/01/27 01:17:35;;;;;;;52.35;22.90;;;;;;;-1.92;100.00;93736.44;5089544;28;20080;-81
2022/01/27 01:20:23;;;;;;;52.20;22.23;;;;;;;-1.93;100.00;93733.13;5089933;28;20472;-80
2022/01/27 01:31:15;;;;;;;82.28;35.55;;;;;;;-2.11;100.00;93724.47;5089403;28;20055;-80
2022/01/27 01:33:44;;;;;;;55.67;25.23;;;;;;;-2.17;100.00;93723.25;5089064;28;20048;-80
2022/01/27 01:36:16;;;;;;;66.65;33.05;;;;;;;-2.03;100.00;93735.53;5089242;28;20040;-81
2022/01/27 01:38:45;;;;;;;72.20;36.63;;;;;;;-2.18;100.00;93709.06;5089337;28;20106;-81
2022/01/27 01:41:12;;;;;;;76.13;41.50;;;;;;;-2.01;100.00;93725.34;5089182;28;20059;-78
2022/01/27 01:43:40;;;;;;;72.65;37.75;;;;;;;-1.99;100.00;93730.28;5089658;28;20044;-77
2022/01/27 01:46:07;;;;;;;86.65;46.60;;;;;;;-1.99;100.00;93732.81;5089400;28;20141;-76
2022/01/27 01:48:34;;;;;;;77.30;41.47;;;;;;;-1.97;100.00;93731.75;5089131;28;20102;-78
2022/01/27 01:51:03;;;;;;;77.65;40.08;;;;;;;-2.08;100.00;93704.13;5086455;28;20039;-79
2022/01/27 01:53:30;;;;;;;78.53;40.03;;;;;;;-1.92;100.00;93722.13;5088936;28;20048;-78
2022/01/27 01:55:58;;;;;;;85.30;44.00;;;;;;;-2.18;100.00;93684.69;5088724;28;20554;-78
2022/01/27 01:58:25;;;;;;;79.13;41.75;;;;;;;-1.94;100.00;93726.47;5088702;28;20560;-78
2022/01/27 02:00:53;;;;;;;74.57;39.15;;;;;;;-1.91;100.00;93721.22;5088770;28;20051;-78
2022/01/27 02:03:20;;;;;;;72.13;40.80;;;;;;;-1.93;100.00;93722.25;5088519;28;20048;-78
2022/01/27 02:05:52;;;;;;;72.80;39.00;;;;;;;-1.92;100.00;93717.09;5088934;28;20048;-78
2022/01/27 02:08:36;;;;;;;76.25;39.70;;;;;;;-1.91;100.00;93708.63;5088837;28;20133;-78
2022/01/27 02:19:22;;;;;;;48.15;24.15;;;;;;;-2.62;100.00;93663.75;5089141;28;20059;-79
2022/01/27 02:21:53;;;;;;;47.95;25.90;;;;;;;-2.40;100.00;93690.59;5089059;28;20079;-79
2022/01/27 02:24:21;;;;;;;50.70;26.02;;;;;;;-2.32;100.00;93690.00;5088960;28;20450;-79
2022/01/27 02:26:49;;;;;;;40.80;23.38;;;;;;;-2.40;100.00;93683.06;5088749;28;20503;-79
2022/01/27 02:29:17;;;;;;;38.50;23.08;;;;;;;-2.24;100.00;93690.19;5089005;28;20078;-79
2022/01/27 02:31:44;;;;;;;51.65;26.38;;;;;;;-2.17;100.00;93705.63;5089096;28;20051;-79
2022/01/27 02:34:10;;;;;;;47.58;24.92;;;;;;;-2.35;100.00;93670.91;5088766;28;20051;-79
2022/01/27 02:36:37;;;;;;;49.15;27.88;;;;;;;-2.07;100.00;93698.97;5089066;28;20044;-79
2022/01/27 02:39:07;;;;;;;44.10;25.92;;;;;;;-2.03;100.00;93697.78;5089070;28;20113;-79
2022/01/27 02:41:43;;;;;;;51.92;27.23;;;;;;;-2.08;100.00;93681.47;5088771;28;20052;-79
2022/01/27 02:44:10;;;;;;;54.80;31.15;;;;;;;-1.94;100.00;93696.25;5088647;28;20144;-79
2022/01/27 02:46:45;;;;;;;71.22;36.85;;;;;;;-1.94;100.00;93698.78;5089339;28;20445;-78
2022/01/27 02:49:12;;;;;;;65.35;37.03;;;;;;;-1.94;100.00;93692.97;5088861;28;20052;-79
2022/01/27 02:51:39;;;;;;;67.35;37.05;;;;;;;-1.91;100.00;93702.78;5088689;28;20055;-79
2022/01/27 02:54:07;;;;;;;77.97;41.83;;;;;;;-1.97;100.00;93699.03;5088921;28;20040;-80
2022/01/27 02:56:34;;;;;;;59.97;33.08;;;;;;;-1.98;100.00;93701.66;5089665;28;20044;-79
2022/01/27 02:59:01;;;;;;;80.57;42.65;;;;;;;-2.03;100.00;93690.22;5092359;28;20051;-79
2022/01/27 03:01:28;;;;;;;76.38;41.15;;;;;;;-1.90;100.00;93706.91;5092104;28;20125;-78
2022/01/27 03:03:55;;;;;;;69.40;37.35;;;;;;;-1.88;100.00;93700.03;5092203;28;20044;-79
2022/01/27 03:06:21;;;;;;;68.57;36.33;;;;;;;-1.85;100.00;93709.06;5092526;28;20044;-79
2022/01/27 03:08:48;;;;;;;62.22;34.88;;;;;;;-2.11;100.00;93669.91;5092280;28;20104;-79
2022/01/27 03:11:33;;;;;;;57.78;33.85;;;;;;;-1.81;100.00;93713.72;5092075;28;20051;-80
2022/01/27 03:14:00;;;;;;;53.53;29.50;;;;;;;-1.81;100.00;93712.94;5092356;28;20048;-80
2022/01/27 03:16:27;;;;;;;58.15;31.73;;;;;;;-1.80;100.00;93709.50;5092227;28;20048;-79
2022/01/27 03:18:53;;;;;;;50.95;29.05;;;;;;;-1.83;100.00;93697.13;5092273;28;20055;-79
2022/01/27 03:21:20;;;;;;;48.92;27.67;;;;;;;-1.78;100.00;93695.84;5092167;28;20056;-80
2022/01/27 03:23:47;;;;;;;48.20;27.25;;;;;;;-1.76;100.00;93694.00;5091808;28;20091;-79
2022/01/27 03:26:14;;;;;;;51.55;29.23;;;;;;;-1.80;100.00;93697.69;5091765;28;20139;-80
2022/01/27 03:28:42;;;;;;;56.90;29.10;;;;;;;-1.81;100.00;93696.09;5091939;28;20044;-80
2022/01/27 03:31:09;;;;;;;51.22;21.63;;;;;;;-1.84;100.00;93695.53;5091819;28;20048;-79
2022/01/27 03:33:39;;;;;;;52.63;27.80;;;;;;;-1.83;100.00;93697.94;5091532;28;20507;-79
2022/01/27 03:36:05;;;;;;;47.53;25.50;;;;;;;-1.88;100.00;93687.44;5091913;28;20067;-79
2022/01/27 03:38:32;;;;;;;52.30;29.27;;;;;;;-1.83;100.00;93704.69;5092041;28;20052;-79
2022/01/27 03:41:04;;;;;;;83.47;43.08;;;;;;;-2.00;100.00;93668.28;5091759;28;20063;-79
2022/01/27 03:43:31;;;;;;;57.60;29.10;;;;;;;-1.84;100.00;93691.31;5091305;28;20052;-78
2022/01/27 03:46:00;;;;;;;49.65;26.10;;;;;;;-1.83;100.00;93694.63;5091417;28;20507;-79
2022/01/27 03:48:26;;;;;;;47.75;25.02;;;;;;;-1.80;100.00;93696.91;5091812;28;20113;-78
2022/01/27 03:50:53;;;;;;;50.85;26.55;;;;;;;-2.03;100.00;93666.78;5091385;28;20495;-78
2022/01/27 03:53:20;;;;;;;48.35;26.65;;;;;;;-1.77;100.00;93702.50;5091312;28;20052;-78
2022/01/27 03:55:47;;;;;;;54.38;28.02;;;;;;;-1.80;100.00;93699.41;5091283;28;20843;-78
2022/01/27 03:58:14;;;;;;;55.42;29.05;;;;;;;-1.75;100.00;93707.41;5091172;28;20047;-78
2022/01/27 04:00:41;;;;;;;52.60;28.38;;;;;;;-1.74;100.00;93709.00;5091458;28;20097;-78
2022/01/27 04:03:11;;;;;;;52.40;28.45;;;;;;;-1.78;100.00;93708.44;5091210;28;20056;-79
2022/01/27 04:05:41;;;;;;;52.40;29.83;;;;;;;-1.86;100.00;93699.91;5091070;28;20048;-78
2022/01/27 04:08:10;;;;;;;48.65;28.63;;;;;;;-1.83;100.00;93707.22;5091117;28;20139;-78
2022/01/27 04:10:38;;;;;;;55.50;32.22;;;;;;;-1.79;100.00;93719.44;5090992;28;20446;-79
2022/01/27 04:13:06;;;;;;;61.45;30.95;;;;;;;-1.80;100.00;93709.50;5068354;28;20118;-78
2022/01/27 04:15:34;;;;;;;69.60;33.80;;;;;;;-1.80;100.00;93715.31;5070465;28;20051;-78
2022/01/27 04:18:01;;;;;;;90.78;46.45;;;;;;;-1.77;100.00;93717.59;5070853;28;20053;-78
2022/01/27 04:20:29;;;;;;;94.25;41.95;;;;;;;-1.88;100.00;93695.81;5070600;28;20048;-78
2022/01/27 04:22:56;;;;;;;98.25;51.08;;;;;;;-1.71;100.00;93706.22;5070454;28;20044;-78
2022/01/27 04:25:23;;;;;;;118.93;63.33;;;;;;;-1.70;100.00;93704.50;5070689;28;20044;-78
2022/01/27 04:27:53;;;;;;;111.25;49.40;;;;;;;-1.71;100.00;93713.00;5070157;28;20499;-78
2022/01/27 04:30:23;;;;;;;97.93;46.35;;;;;;;-1.71;100.00;93707.97;5070306;28;20052;-79
2022/01/27 04:32:53;;;;;;;105.93;56.20;;;;;;;-1.73;100.00;93714.84;5070315;28;20066;-78
2022/01/27 04:35:23;;;;;;;81.68;43.08;;;;;;;-1.79;100.00;93719.44;5070489;28;20048;-78
2022/01/27 04:38:03;;;;;;;87.78;44.20;;;;;;;-1.77;100.00;93717.59;5070292;28;20041;-78
2022/01/27 04:40:35;;;;;;;70.90;34.00;;;;;;;-1.74;100.00;93716.56;5069926;28;20117;-78
2022/01/27 04:43:09;;;;;;;57.47;29.77;;;;;;;-1.78;100.00;93720.22;5070135;28;20045;-78
2022/01/27 04:45:43;;;;;;;70.28;37.30;;;;;;;-1.78;100.00;93716.00;5069943;28;20056;-78
2022/01/27 04:48:13;;;;;;;64.63;32.55;;;;;;;-1.80;100.00;93717.06;5069914;28;20143;-78
2022/01/27 04:50:41;;;;;;;66.97;31.30;;;;;;;-1.78;100.00;93717.72;5070145;28;20094;-78
2022/01/27 04:53:15;;;;;;;74.18;41.17;;;;;;;-1.81;100.00;93710.41;5069949;28;20048;-78
2022/01/27 04:55:42;;;;;;;70.18;39.08;;;;;;;-1.76;100.00;93723.44;5070114;28;20428;-78
2022/01/27 04:58:13;;;;;;;65.63;29.25;;;;;;;-1.73;100.00;93720.66;5069842;28;20123;-78
2022/01/27 05:00:41;;;;;;;115.18;52.47;;;;;;;-1.79;100.00;93706.84;5069977;28;20072;-78
2022/01/27 05:03:22;;;;;;;78.93;35.13;;;;;;;-1.81;100.00;93708.69;5069524;28;20048;-78
2022/01/27 05:05:52;;;;;;;64.97;28.17;;;;;;;-1.63;100.00;93733.31;5069625;28;20055;-78
2022/01/27 05:08:20;;;;;;;72.57;38.70;;;;;;;-1.63;100.00;93735.84;5069611;28;20055;-78
2022/01/27 05:10:56;;;;;;;75.93;40.58;;;;;;;-1.65;100.00;93742.75;5069824;28;20091;-78
2022/01/27 05:13:25;;;;;;;;;;;;;;;-1.64;100.00;93746.84;5070182;28;20816;-79
2022/01/27 05:15:52;;;;;;;81.28;39.85;;;;;;;-1.67;100.00;93742.84;5069772;28;19924;-78
2022/01/27 05:18:20;;;;;;;79.75;40.45;;;;;;;-1.68;100.00;93743.78;5069458;28;20048;-78
2022/01/27 05:20:47;;;;;;;119.55;54.42;;;;;;;-1.69;100.00;93749.75;5069000;28;20067;-78
2022/01/27 05:23:14;;;;;;;74.13;36.75;;;;;;;-1.65;100.00;93752.81;5069357;28;20052;-78
2022/01/27 05:25:42;;;;;;;70.35;33.97;;;;;;;-1.63;100.00;93751.78;5069621;28;20466;-78
2022/01/27 05:28:09;;;;;;;91.80;43.85;;;;;;;-1.64;100.00;93750.19;5069555;28;20454;-78
2022/01/27 05:30:36;;;;;;;76.90;36.97;;;;;;;-1.77;100.00;93736.94;5069575;28;20052;-79
2022/01/27 05:33:03;;;;;;;88.47;39.72;;;;;;;-1.69;100.00;93756.47;5069178;28;20060;-78
2022/01/27 05:35:30;;;;;;;93.57;45.53;;;;;;;-1.63;100.00;93756.00;5069272;28;20052;-78
2022/01/27 05:37:57;;;;;;;95.82;49.13;;;;;;;-1.61;100.00;93754.19;5069498;28;20049;-78
2022/01/27 05:40:24;;;;;;;97.63;46.47;;;;;;;-1.62;100.00;93755.88;5069205;28;20048;-78
2022/01/27 05:42:52;;;;;;;86.68;34.88;;;;;;;-1.62;100.00;93755.88;5069332;28;20048;-78
2022/01/27 05:45:19;;;;;;;108.55;49.50;;;;;;;-1.54;100.00;93759.50;5069067;28;20040;-78
2022/01/27 05:47:46;;;;;;;91.93;45.17;;;;;;;-1.55;100.00;93755.41;5069346;28;20048;-78
2022/01/27 05:50:13;;;;;;;88.20;45.85;;;;;;;-1.55;100.00;93756.19;5069268;28;20492;-78
2022/01/27 05:52:40;;;;;;;87.60;42.00;;;;;;;-1.57;100.00;93758.03;5069150;28;20057;-78
2022/01/27 05:55:08;;;;;;;71.03;33.90;;;;;;;-1.64;100.00;93747.66;5069389;28;20450;-78
2022/01/27 05:57:35;;;;;;;51.00;24.70;;;;;;;-1.51;100.00;93759.28;5069353;28;20499;-78
2022/01/27 06:00:05;;;;;;;50.50;24.92;;;;;;;-1.54;100.00;93756.97;5069342;28;20439;-78
2022/01/27 06:02:32;;;;;;;38.75;19.98;;;;;;;-1.56;100.00;93762.16;5069472;28;20081;-78
2022/01/27 06:05:02;;;;;;;43.53;22.23;;;;;;;-1.58;100.00;93753.91;5069211;28;20045;-78
2022/01/27 06:07:29;;;;;;;83.60;44.25;;;;;;;-1.58;100.00;93758.94;5068968;28;20423;-78
2022/01/27 06:09:56;;;;;;;47.53;26.77;;;;;;;-1.59;100.00;93754.06;5069252;28;20059;-78
2022/01/27 06:12:22;;;;;;;54.42;27.20;;;;;;;-1.62;100.00;93768.47;5068809;28;20045;-78
2022/01/27 06:14:49;;;;;;;73.40;31.75;;;;;;;-1.80;100.00;93752.31;5069089;28;20499;-78
2022/01/27 06:17:18;;;;;;;62.47;28.65;;;;;;;-1.72;100.00;93762.56;5068681;28;20500;-78
2022/01/27 06:19:46;;;;;;;95.97;43.38;;;;;;;-1.73;100.00;93762.72;5069074;28;20509;-78
2022/01/27 06:22:13;;;;;;;91.43;39.83;;;;;;;-1.73;100.00;93771.03;5068686;28;20051;-78
2022/01/27 06:24:40;;;;;;;101.63;45.10;;;;;;;-1.88;100.00;93742.84;5068703;28;20052;-78
2022/01/27 06:27:07;;;;;;;88.38;42.15;;;;;;;-1.73;100.00;93767.75;5068630;28;20098;-78
2022/01/27 06:29:35;;;;;;;83.03;41.20;;;;;;;-1.71;100.00;93775.97;5069015;28;20106;-78
2022/01/27 06:32:02;;;;;;;83.95;44.80;;;;;;;-1.76;100.00;93787.19;5070304;28;20048;-78
2022/01/27 06:34:30;;;;;;;68.53;35.75;;;;;;;-1.93;100.00;93753.28;5072487;28;20571;-78
2022/01/27 06:36:58;;;;;;;59.10;26.23;;;;;;;-1.67;100.00;93784.88;5072841;28;20052;-78
2022/01/27 06:39:24;;;;;;;55.65;32.28;;;;;;;-1.63;100.00;93778.66;5072775;28;20055;-78
2022/01/27 06:41:51;;;;;;;52.38;30.25;;;;;;;-1.58;100.00;93781.63;5072200;28;20044;-78
2022/01/27 06:44:18;;;;;;;62.15;30.55;;;;;;;-1.56;100.00;93781.50;5072361;28;20496;-78
2022/01/27 06:46:45;;;;;;;51.10;24.52;;;;;;;-1.58;100.00;93784.16;5072515;28;20098;-78
2022/01/27 06:49:16;;;;;;;35.88;19.13;;;;;;;-1.75;100.00;93788.00;5072349;28;20428;-78
2022/01/27 06:51:44;;;;;;;53.13;25.02;;;;;;;-2.18;100.00;93774.50;5072372;28;20049;-78
2022/01/27 06:54:11;;;;;;;38.28;19.50;;;;;;;-2.28;100.00;93776.91;5072240;28;20052;-78
2022/01/27 06:56:38;;;;;;;47.13;22.40;;;;;;;-2.10;100.00;93777.22;5072459;28;20072;-78
2022/01/27 06:59:05;;;;;;;44.22;24.40;;;;;;;-2.07;100.00;93777.00;5072324;28;20051;-78
2022/01/27 07:01:32;;;;;;;53.92;27.35;;;;;;;-2.10;100.00;93772.19;5072370;28;20048;-78
2022/01/27 07:03:59;;;;;;;48.22;21.13;;;;;;;-2.30;100.00;93766.94;5071892;28;20086;-78
2022/01/27 07:06:26;;;;;;;42.00;20.83;;;;;;;-2.30;100.00;93774.50;5072222;28;20044;-78
2022/01/27 07:08:54;;;;;;;61.10;29.58;;;;;;;-2.12;100.00;93778.25;5071910;28;20045;-78
2022/01/27 07:11:21;;;;;;;68.28;33.03;;;;;;;-1.99;100.00;93778.13;5072103;28;20044;-78
2022/01/27 07:13:48;;;;;;;99.32;52.90;;;;;;;-1.83;100.00;93777.72;5071540;28;20064;-78
2022/01/27 07:16:15;;;;;;;88.22;47.00;;;;;;;-1.67;100.00;93785.66;5071986;28;20059;-78
2022/01/27 07:18:42;;;;;;;52.03;25.73;;;;;;;-1.80;100.00;93785.81;5071751;28;20048;-77
2022/01/27 07:21:09;;;;;;;50.78;22.35;;;;;;;-1.75;100.00;93785.50;5071849;28;20101;-77
2022/01/27 07:23:35;;;;;;;46.63;21.60;;;;;;;-1.84;100.00;93781.16;5071968;28;20431;-78
2022/01/27 07:26:04;;;;;;;44.90;21.95;;;;;;;-1.89;100.00;93766.41;5071942;28;20071;-78
2022/01/27 07:28:31;;;;;;;42.20;24.30;;;;;;;-1.93;100.00;93780.97;5071634;28;20045;-78
2022/01/27 07:30:58;;;;;;;57.70;31.45;;;;;;;-1.91;100.00;93785.88;5071756;28;20044;-78
2022/01/27 07:33:24;;;;;;;41.13;22.90;;;;;;;-1.83;100.00;93780.22;5071341;28;20068;-78
2022/01/27 07:35:51;;;;;;;40.95;24.63;;;;;;;-1.72;100.00;93785.22;5071259;28;20492;-78
2022/01/27 07:38:18;;;;;;;40.88;21.30;;;;;;;-1.68;100.00;93788.31;5071326;28;20048;-78
2022/01/27 07:40:45;;;;;;;37.25;19.30;;;;;;;-1.82;100.00;93797.75;5071707;28;20045;-78
2022/01/27 07:43:13;;;;;;;44.97;22.98;;;;;;;-1.81;100.00;93793.53;5071036;28;20044;-78
2022/01/27 07:45:40;;;;;;;36.30;21.73;;;;;;;-1.74;100.00;93792.13;5071591;28;20055;-77
2022/01/27 07:48:07;;;;;;;37.92;20.50;;;;;;;-1.86;100.00;93770.41;5071453;28;20063;-78
2022/01/27 07:50:34;;;;;;;38.28;18.20;;;;;;;-1.89;100.00;93794.13;5031277;28;20504;-78
2022/01/27 07:53:01;;;;;;;36.95;22.20;;;;;;;-1.88;100.00;93799.03;5031207;28;20057;-78
2022/01/27 07:55:28;;;;;;;37.97;19.00;;;;;;;-1.92;100.00;93792.63;5031295;28;20054;-78
2022/01/27 07:57:55;;;;;;;38.20;18.52;;;;;;;-1.91;100.00;93779.13;5011396;28;20092;-78
2022/01/27 08:00:23;;;;;;;31.85;18.45;;;;;;;-1.55;100.00;93796.50;5007696;28;20062;-78
2022/01/27 08:02:50;;;;;;;33.45;19.17;;;;;;;-1.32;100.00;93798.94;5011189;28;20058;-78
2022/01/27 08:05:17;;;;;;;47.95;23.38;;;;;;;-1.19;100.00;93795.44;5011235;28;20054;-78
2022/01/27 08:07:44;;;;;;;55.20;22.83;;;;;;;-1.19;100.00;93792.91;5011207;28;20054;-77
2022/01/27 08:10:10;;;;;;;65.15;29.95;;;;;;;-1.09;100.00;93798.81;5011126;28;20042;-78
2022/01/27 08:12:41;;;;;;;50.17;20.65;;;;;;;-1.20;100.00;93799.69;5010862;28;20053;-78
2022/01/27 08:15:11;;;;;;;42.75;22.38;;;;;;;-1.41;100.00;93782.81;5011056;28;20058;-79
2022/01/27 08:17:40;;;;;;;37.47;21.77;;;;;;;-1.48;100.00;93790.06;5011179;28;20053;-78
2022/01/27 08:20:08;;;;;;;24.90;11.90;;;;;;;-1.44;100.00;93807.47;5010746;28;20050;-78
2022/01/27 08:22:37;;;;;;;20.50;11.07;;;;;;;-1.45;100.00;93801.63;5010814;28;20046;-78
2022/01/27 08:25:05;;;;;;;29.02;13.48;;;;;;;-1.31;100.00;93794.69;5011028;28;20053;-78
2022/01/27 08:27:32;;;;;;;31.95;15.85;;;;;;;-1.15;100.00;93800.09;5010845;28;20050;-78
2022/01/27 08:30:02;;;;;;;32.95;16.15;;;;;;;-1.24;100.00;93760.50;5010968;28;20045;-78
2022/01/27 08:32:44;;;;;;;33.72;16.40;;;;;;;-0.77;100.00;93809.72;5010610;28;20120;-78
2022/01/27 08:35:12;;;;;;;31.40;18.02;;;;;;;-0.78;100.00;93791.28;5009453;28;20057;-79
2022/01/27 08:37:39;;;;;;;30.00;16.17;;;;;;;-0.53;100.00;93819.53;5010749;28;20050;-79
2022/01/27 08:40:07;;;;;;;33.83;15.88;;;;;;;-0.51;100.00;93796.72;5010688;28;20460;-79
2022/01/27 08:42:34;;;;;;;30.55;16.73;;;;;;;-0.30;100.00;93812.59;5010562;28;20059;-79
2022/01/27 08:45:01;;;;;;;33.67;16.02;;;;;;;-0.44;100.00;93807.88;5010524;28;20502;-78
2022/01/27 08:47:27;;;;;;;42.70;20.02;;;;;;;-0.47;100.00;93810.69;5010560;28;20046;-79
2022/01/27 08:49:54;;;;;;;39.92;19.13;;;;;;;-0.48;100.00;93802.28;5039554;28;20056;-79
2022/01/27 08:52:23;;;;;;;53.08;22.40;;;;;;;-0.30;100.00;93816.84;5050377;28;20053;-79
2022/01/27 08:54:49;;;;;;;73.07;22.77;;;;;;;-0.20;100.00;93820.19;5049024;28;20095;-79
2022/01/27 08:57:16;;;;;;;88.80;21.15;;;;;;;-0.11;100.00;93821.16;5050100;28;20049;-79
2022/01/27 08:59:43;;;;;;;75.05;20.83;;;;;;;-0.06;100.00;93821.56;5050167;28;20061;-79
2022/01/27 09:02:10;;;;;;;74.80;20.27;;;;;;;-0.32;100.00;93822.00;5066669;28;20419;-79
2022/01/27 09:04:39;;;;;;;77.47;20.20;;;;;;;-0.29;100.00;93806.63;5070010;28;20117;-79
2022/01/27 09:07:05;;;;;;;77.22;19.45;;;;;;;-0.14;100.00;93821.38;5070081;28;20454;-79
2022/01/27 09:09:34;;;;;;;79.47;22.92;;;;;;;-0.10;100.00;93806.81;5069861;28;20102;-78
2022/01/27 09:12:00;;;;;;;60.35;19.38;;;;;;;0.01;100.00;93814.28;5068987;28;20533;-78
2022/01/27 09:14:30;;;;;;;82.10;23.45;;;;;;;0.26;100.00;93814.69;5069833;28;20157;-78
2022/01/27 09:16:57;;;;;;;43.30;13.20;;;;;;;-0.44;100.00;93812.94;5069342;28;20094;-78
2022/01/27 09:19:25;;;;;;;53.17;15.10;;;;;;;-0.27;100.00;93819.91;5069752;28;20147;-78
2022/01/27 09:21:53;;;;;;;52.42;15.98;;;;;;;-0.12;100.00;93817.03;5069477;28;20044;-78
2022/01/27 09:24:27;;;;;;;46.92;16.98;;;;;;;0.11;100.00;93807.50;5069575;28;20098;-78
2022/01/27 09:27:01;;;;;;;42.78;16.63;;;;;;;0.30;100.00;93810.19;5069411;28;20512;-78
2022/01/27 09:29:28;;;;;;;38.78;14.80;;;;;;;-0.14;100.00;93796.13;5069260;28;20401;-78
2022/01/27 09:31:56;;;;;;;35.35;12.63;;;;;;;-0.19;100.00;93800.81;5069204;28;20538;-78
2022/01/27 09:34:22;;;;;;;27.40;10.18;;;;;;;-0.13;100.00;93785.13;5069536;28;20060;-78
2022/01/27 09:36:50;;;;;;;19.98;9.18;;;;;;;-0.14;100.00;93799.47;5069376;28;20093;-78
2022/01/27 09:39:19;;;;;;;23.52;8.90;;;;;;;-0.50;100.00;93791.53;5069465;28;20407;-78
2022/01/27 09:41:47;;;;;;;32.00;11.75;;;;;;;-0.44;100.00;93785.97;5069422;28;20041;-78
2022/01/27 09:44:15;;;;;;;45.05;12.82;;;;;;;-0.17;100.00;93784.59;5069253;28;20048;-78
2022/01/27 09:46:45;;;;;;;40.30;12.43;;;;;;;-0.07;100.00;93779.56;5069476;28;20045;-78
2022/01/27 09:49:16;;;;;;;38.55;16.50;;;;;;;0.17;100.00;93780.91;5069189;28;20056;-78
2022/01/27 09:51:45;;;;;;;22.02;11.48;;;;;;;0.09;100.00;93785.84;5069337;28;20504;-78
2022/01/27 09:54:13;;;;;;;13.25;9.23;;;;;;;-0.23;100.00;93785.09;5069142;28;20052;-78
2022/01/27 09:56:41;;;;;;;9.77;7.30;;;;;;;-0.57;100.00;93777.81;5066489;28;20511;-78
2022/01/27 09:59:09;;;;;;;15.07;10.00;;;;;;;-0.36;100.00;93787.06;5046914;28;20110;-78
2022/01/27 10:01:39;;;;;;;16.90;9.55;;;;;;;-0.15;100.00;93782.72;5047628;28;20102;-78
2022/01/27 10:04:09;;;;;;;13.88;9.00;;;;;;;-0.02;100.00;93764.81;5049155;28;20049;-79
2022/01/27 10:06:37;;;;;;;19.15;8.15;;;;;;;0.02;100.00;93780.50;5051463;28;20051;-79
2022/01/27 10:09:16;;;;;;;22.30;10.15;;;;;;;0.16;100.00;93788.63;5053136;28;20056;-78
2022/01/27 10:11:45;;;;;;;49.15;16.75;;;;;;;0.25;100.00;93791.19;5053156;28;20049;-79
2022/01/27 10:14:20;;;;;;;50.63;15.77;;;;;;;0.37;100.00;93786.00;5053239;28;20060;-78
2022/01/27 10:16:50;;;;;;;78.37;19.07;;;;;;;0.25;100.00;93760.84;5053392;28;20808;-78
2022/01/27 10:19:18;;;;;;;33.38;12.93;;;;;;;0.11;100.00;93762.03;5052036;28;20309;-78
2022/01/27 10:21:46;;;;;;;10.73;7.18;;;;;;;-0.23;100.00;93780.03;5055306;28;20053;-78
2022/01/27 10:24:20;;;;;;;16.77;10.70;;;;;;;-0.50;100.00;93773.88;5052914;28;20056;-78
2022/01/27 10:26:53;;;;;;;14.38;9.35;;;;;;;-0.47;100.00;93765.25;5052491;28;20504;-78
2022/01/27 10:29:34;;;;;;;15.55;9.30;;;;;;;-0.57;100.00;93776.09;5052871;28;20048;-78
2022/01/27 10:32:08;;;;;;;11.68;7.85;;;;;;;-0.52;100.00;93777.44;5052630;28;20049;-78
2022/01/27 10:34:56;;;;;;;13.10;8.48;;;;;;;-0.18;100.00;93782.97;5052463;28;20053;-78
2022/01/27 10:37:23;;;;;;;10.32;7.30;;;;;;;-0.58;100.00;93749.28;5052333;28;20045;-78
2022/01/27 10:39:50;;;;;;;10.23;6.57;;;;;;;-0.57;100.00;93765.19;5052592;28;20041;-78
2022/01/27 10:42:21;;;;;;;16.13;9.45;;;;;;;-0.20;100.00;93769.69;5052325;28;20045;-77
2022/01/27 10:44:54;;;;;;;11.20;7.72;;;;;;;-0.10;100.00;93764.66;5052493;28;20466;-78
2022/01/27 10:47:29;;;;;;;16.45;9.27;;;;;;;-0.01;100.00;93773.16;5052232;28;20056;-78
2022/01/27 10:49:59;;;;;;;11.32;7.63;;;;;;;-0.45;100.00;93768.44;5052610;28;20071;-78
2022/01/27 10:52:35;;;;;;;10.57;6.95;;;;;;;-0.35;100.00;93770.97;5052228;28;20077;-78
2022/01/27 10:55:07;;;;;;;11.43;7.22;;;;;;;-0.53;100.00;93764.03;5052013;28;20088;-78
2022/01/27 10:57:34;;;;;;;24.95;13.82;;;;;;;-0.41;100.00;93755.41;5052308;28;20049;-78
2022/01/27 11:00:10;;;;;;;11.63;7.57;;;;;;;-0.15;100.00;93762.53;5051913;28;20053;-78
2022/01/27 11:02:51;;;;;;;12.75;8.88;;;;;;;0.05;100.00;93756.72;5052300;28;20047;-78
2022/01/27 11:05:18;;;;;;;16.83;9.98;;;;;;;0.37;100.00;93758.19;5051807;28;20056;-78
2022/01/27 11:07:46;;;;;;;40.00;12.25;;;;;;;0.43;100.00;93756.84;5051991;28;20412;-78
2022/01/27 11:10:15;;;;;;;51.40;12.68;;;;;;;0.23;100.00;93747.53;5052007;28;20055;-79
2022/01/27 11:12:44;;;;;;;96.53;20.63;;;;;;;0.15;100.00;93756.72;5052022;28;20550;-78
2022/01/27 11:15:11;;;;;;;49.97;13.90;;;;;;;0.01;100.00;93755.38;5051865;28;20056;-78
2022/01/27 11:17:40;;;;;;;27.40;9.75;;;;;;;-0.03;100.00;93755.66;5051114;28;20404;-78
2022/01/27 11:20:25;;;;;;;23.90;9.57;;;;;;;-0.30;100.00;93736.03;5051947;28;20052;-79
2022/01/27 11:23:24;;;;;;;46.40;15.02;;;;;;;-0.16;100.00;93742.44;5052082;28;20049;-78
2022/01/27 11:25:55;;;;;;;26.45;11.27;;;;;;;-0.32;100.00;93743.75;5051285;28;20087;-78
2022/01/27 11:28:23;;;;;;;28.52;10.77;;;;;;;-0.43;100.00;93721.94;5051638;28;20048;-78
2022/01/27 11:31:01;;;;;;;16.48;10.18;;;;;;;-0.39;100.00;93745.19;5051389;28;20045;-78
2022/01/27 11:33:33;;;;;;;17.30;9.95;;;;;;;-0.25;100.00;93749.09;5051261;28;20088;-78
2022/01/27 11:36:08;;;;;;;16.00;9.13;;;;;;;-0.20;100.00;93749.50;5051812;28;20102;-78
2022/01/27 11:38:35;;;;;;;14.75;9.38;;;;;;;-0.17;100.00;93750.97;5051765;28;20106;-78
2022/01/27 11:41:02;;;;;;;15.40;8.93;;;;;;;-0.43;100.00;93734.56;5051658;28;20041;-78
2022/01/27 11:43:33;;;;;;;14.68;8.52;;;;;;;-0.72;100.00;93704.19;5050431;28;20493;-78